Terminal Aerodrome Forecast
Issued by NWS

Home | Current Version | Previous Version | Text Only | Print | Product List | Glossary On
Versions: 1 2 3 4 5 6 7 8 9 10 11 12 13 14 15 16 17 18 19 20 21 22 23 24 25 26 27 28 29 30
000
FTUS41 KPHI 282339
TAFPNE
TAF
KPNE 282339Z 2900/2924 03007KT 1SM RA BR BKN007 OVC025
      TEMPO 2901/2903 3SM -DZ BR
     FM290300 05008KT 3SM BR VCSH OVC009
     FM291200 06010KT 5SM BR VCSH OVC015
      TEMPO 2916/2920 4SM -RA BR=

USA.gov is the U.S. government's official web portal to all federal, state and local government web resources and services.